ADZ21 UHMA-UHMP
Flight info
| Callsign | ADZ21 |
|---|---|
| Flight time | 1h 53m |
| Altitude | 17000 |
| Route | N0240F170 GERBI W80 ARBOM |
| Aircraft | AN24/M-STRACS/L |
Departure
| Time | 2026-04-12 17:43 |
|---|---|
| Airport | Ugolny Yuri Ryktheu Airport (UHMA) |
Arrival
| Time | 2026-04-12 19:36 |
|---|---|
| Airport | Pevek Airport (UHMP) |
| Time | Latitude | Longitude | Altitude | Speed | Heading |
|---|---|---|---|---|---|
| 2026-04-12 17:28 | 64.71632 | 177.73910 | 151 ft | 0 kts | 268° |
| 2026-04-12 17:36 | 64.71634 | 177.73801 | 151 ft | 7 kts | 284° |
| 2026-04-12 17:36 | 64.71639 | 177.73770 | 151 ft | 0 kts | 298° |
| 2026-04-12 17:37 | 64.71679 | 177.73671 | 151 ft | 12 kts | 321° |
| 2026-04-12 17:37 | 64.71768 | 177.73518 | 151 ft | 18 kts | 334° |
| 2026-04-12 17:37 | 64.71835 | 177.73444 | 151 ft | 0 kts | 335° |
| 2026-04-12 17:39 | 64.71873 | 177.73404 | 151 ft | 14 kts | 336° |
| 2026-04-12 17:39 | 64.71946 | 177.73363 | 151 ft | 4 kts | 6° |
| 2026-04-12 17:40 | 64.71959 | 177.73361 | 151 ft | 7 kts | 354° |
| 2026-04-12 17:40 | 64.72001 | 177.73302 | 151 ft | 1 kts | 324° |
| 2026-04-12 17:40 | 64.72025 | 177.73280 | 151 ft | 7 kts | 356° |
| 2026-04-12 17:40 | 64.72041 | 177.73285 | 151 ft | 0 kts | 16° |
| 2026-04-12 17:41 | 64.72051 | 177.73291 | 151 ft | 13 kts | 15° |
| 2026-04-12 17:41 | 64.72388 | 177.73506 | 151 ft | 85 kts | 14° |
| 2026-04-12 17:42 | 64.73132 | 177.73953 | 156 ft | 130 kts | 14° |
| 2026-04-12 17:42 | 64.74069 | 177.74460 | 403 ft | 143 kts | 11° |
| 2026-04-12 17:42 | 64.75085 | 177.74977 | 709 ft | 156 kts | 12° |
| 2026-04-12 17:43 | 64.77255 | 177.76036 | 1275 ft | 165 kts | 8° |
| 2026-04-12 17:43 | 64.78384 | 177.76743 | 1511 ft | 169 kts | 19° |
| 2026-04-12 17:43 | 64.79469 | 177.77681 | 1876 ft | 165 kts | 19° |
| 2026-04-12 17:43 | 64.80547 | 177.78659 | 2166 ft | 167 kts | 17° |
| 2026-04-12 17:44 | 64.81713 | 177.79054 | 2305 ft | 176 kts | 358° |
| 2026-04-12 17:44 | 64.83158 | 177.78020 | 2694 ft | 174 kts | 329° |
| 2026-04-12 17:44 | 64.84010 | 177.76070 | 2954 ft | 178 kts | 307° |
| 2026-04-12 17:45 | 64.84499 | 177.73328 | 3163 ft | 186 kts | 284° |
| 2026-04-12 17:45 | 64.84723 | 177.70406 | 3579 ft | 178 kts | 283° |
| 2026-04-12 17:45 | 64.84896 | 177.67575 | 3914 ft | 176 kts | 279° |
| 2026-04-12 17:45 | 64.85015 | 177.64719 | 4183 ft | 178 kts | 279° |
| 2026-04-12 17:46 | 64.85176 | 177.61830 | 4459 ft | 177 kts | 289° |
| 2026-04-12 17:46 | 64.85765 | 177.59363 | 4721 ft | 173 kts | 321° |
| 2026-04-12 17:46 | 64.86822 | 177.58170 | 4969 ft | 170 kts | 351° |
| 2026-04-12 17:46 | 64.87981 | 177.57665 | 5262 ft | 170 kts | 348° |
| 2026-04-12 17:47 | 64.89080 | 177.56688 | 5550 ft | 171 kts | 333° |
| 2026-04-12 17:47 | 64.90065 | 177.55156 | 5829 ft | 172 kts | 328° |
| 2026-04-12 17:47 | 64.91053 | 177.53574 | 6094 ft | 173 kts | 329° |
| 2026-04-12 17:47 | 64.92063 | 177.51985 | 6364 ft | 174 kts | 329° |
| 2026-04-12 17:48 | 64.93085 | 177.50478 | 6641 ft | 173 kts | 335° |
| 2026-04-12 17:48 | 64.94167 | 177.49280 | 6917 ft | 173 kts | 338° |
| 2026-04-12 17:48 | 64.95270 | 177.48134 | 7179 ft | 174 kts | 338° |
| 2026-04-12 17:48 | 64.95582 | 177.47809 | 7254 ft | 174 kts | 338° |
| 2026-04-12 17:49 | 64.95696 | 177.47691 | 7282 ft | 174 kts | 338° |
| 2026-04-12 17:49 | 64.96800 | 177.46549 | 7553 ft | 174 kts | 339° |
| 2026-04-12 17:49 | 64.97907 | 177.45404 | 7821 ft | 175 kts | 339° |
| 2026-04-12 17:49 | 64.98075 | 177.45229 | 7862 ft | 175 kts | 339° |
| 2026-04-12 17:50 | 64.98199 | 177.45100 | 7892 ft | 175 kts | 339° |
| 2026-04-12 17:51 | 64.99315 | 177.43950 | 8158 ft | 175 kts | 339° |
| 2026-04-12 17:51 | 64.99606 | 177.43651 | 8227 ft | 176 kts | 339° |
| 2026-04-12 17:52 | 65.00324 | 177.42911 | 8397 ft | 176 kts | 339° |
| 2026-04-12 17:52 | 65.01430 | 177.41702 | 8669 ft | 176 kts | 336° |
| 2026-04-12 17:52 | 65.02529 | 177.40419 | 8930 ft | 177 kts | 337° |
| 2026-04-12 17:53 | 65.02779 | 177.40134 | 8989 ft | 177 kts | 337° |
| 2026-04-12 17:54 | 65.03090 | 177.39778 | 9061 ft | 177 kts | 337° |
| 2026-04-12 17:54 | 65.04199 | 177.38516 | 9319 ft | 178 kts | 337° |
| 2026-04-12 17:54 | 65.05302 | 177.37268 | 9577 ft | 178 kts | 337° |
| 2026-04-12 17:54 | 65.06422 | 177.36005 | 9835 ft | 179 kts | 337° |
| 2026-04-12 17:55 | 65.07553 | 177.34737 | 10090 ft | 179 kts | 336° |
| 2026-04-12 17:55 | 65.08676 | 177.33467 | 10332 ft | 181 kts | 336° |
| 2026-04-12 17:55 | 65.09816 | 177.32149 | 10580 ft | 182 kts | 336° |
| 2026-04-12 17:55 | 65.10956 | 177.30814 | 10790 ft | 185 kts | 336° |
| 2026-04-12 17:56 | 65.12112 | 177.29472 | 10996 ft | 188 kts | 336° |
| 2026-04-12 17:56 | 65.13301 | 177.28105 | 11221 ft | 190 kts | 336° |
| 2026-04-12 17:56 | 65.14481 | 177.26753 | 11452 ft | 191 kts | 336° |
| 2026-04-12 17:56 | 65.15673 | 177.25395 | 11695 ft | 191 kts | 336° |
| 2026-04-12 17:57 | 65.16878 | 177.24030 | 11937 ft | 192 kts | 336° |
| 2026-04-12 17:57 | 65.18083 | 177.22670 | 12179 ft | 192 kts | 336° |
| 2026-04-12 17:57 | 65.19297 | 177.21309 | 12420 ft | 193 kts | 337° |
| 2026-04-12 17:57 | 65.20515 | 177.19949 | 12659 ft | 193 kts | 337° |
| 2026-04-12 17:58 | 65.21705 | 177.18524 | 12902 ft | 193 kts | 335° |
| 2026-04-12 17:58 | 65.22900 | 177.17073 | 13132 ft | 194 kts | 336° |
| 2026-04-12 17:58 | 65.24116 | 177.15614 | 13361 ft | 194 kts | 336° |
| 2026-04-12 17:58 | 65.25317 | 177.14175 | 13582 ft | 194 kts | 336° |
| 2026-04-12 17:59 | 65.26516 | 177.12740 | 13799 ft | 195 kts | 336° |
| 2026-04-12 17:59 | 65.27728 | 177.11285 | 14013 ft | 195 kts | 336° |
| 2026-04-12 17:59 | 65.28944 | 177.09828 | 14224 ft | 195 kts | 336° |
| 2026-04-12 17:59 | 65.30154 | 177.08379 | 14430 ft | 195 kts | 336° |
| 2026-04-12 18:00 | 65.31367 | 177.06926 | 14632 ft | 195 kts | 336° |
| 2026-04-12 18:00 | 65.32570 | 177.05486 | 14829 ft | 195 kts | 336° |
| 2026-04-12 18:00 | 65.33796 | 177.04021 | 15025 ft | 196 kts | 336° |
| 2026-04-12 18:00 | 65.35009 | 177.02571 | 15214 ft | 196 kts | 336° |
| 2026-04-12 18:01 | 65.36223 | 177.01123 | 15398 ft | 196 kts | 336° |
| 2026-04-12 18:01 | 65.37441 | 176.99670 | 15578 ft | 196 kts | 336° |
| 2026-04-12 18:01 | 65.38654 | 176.98227 | 15753 ft | 196 kts | 336° |
| 2026-04-12 18:01 | 65.39877 | 176.96774 | 15926 ft | 196 kts | 336° |
| 2026-04-12 18:02 | 65.41101 | 176.95323 | 16096 ft | 196 kts | 336° |
| 2026-04-12 18:02 | 65.42316 | 176.93886 | 16262 ft | 197 kts | 336° |
| 2026-04-12 18:02 | 65.43551 | 176.92427 | 16428 ft | 197 kts | 336° |
| 2026-04-12 18:02 | 65.44784 | 176.90974 | 16592 ft | 197 kts | 336° |
| 2026-04-12 18:03 | 65.46006 | 176.89537 | 16751 ft | 197 kts | 336° |
| 2026-04-12 18:03 | 65.47249 | 176.88078 | 16910 ft | 198 kts | 336° |
| 2026-04-12 18:03 | 65.48470 | 176.86650 | 17064 ft | 198 kts | 336° |
| 2026-04-12 18:03 | 65.49721 | 176.85190 | 17195 ft | 200 kts | 336° |
| 2026-04-12 18:04 | 65.50983 | 176.83723 | 17302 ft | 202 kts | 337° |
| 2026-04-12 18:04 | 65.52257 | 176.82248 | 17424 ft | 204 kts | 337° |
| 2026-04-12 18:04 | 65.53547 | 176.80760 | 17519 ft | 207 kts | 337° |
| 2026-04-12 18:04 | 65.54839 | 176.79275 | 17630 ft | 210 kts | 337° |
| 2026-04-12 18:05 | 65.56179 | 176.77742 | 17737 ft | 212 kts | 337° |
| 2026-04-12 18:05 | 65.57510 | 176.76222 | 17842 ft | 214 kts | 337° |
| 2026-04-12 18:05 | 65.58873 | 176.74675 | 17912 ft | 218 kts | 337° |
| 2026-04-12 18:05 | 65.60250 | 176.73119 | 18005 ft | 221 kts | 338° |
| 2026-04-12 18:06 | 65.61643 | 176.71518 | 18116 ft | 222 kts | 336° |
| 2026-04-12 18:06 | 65.63020 | 176.69875 | 18233 ft | 223 kts | 337° |
| 2026-04-12 18:06 | 65.64419 | 176.68233 | 18354 ft | 224 kts | 337° |
| 2026-04-12 18:06 | 65.65810 | 176.66505 | 18484 ft | 225 kts | 336° |
| 2026-04-12 18:07 | 65.67207 | 176.64774 | 18608 ft | 225 kts | 336° |
| 2026-04-12 18:07 | 65.68605 | 176.63060 | 18734 ft | 226 kts | 336° |
| 2026-04-12 18:07 | 65.70001 | 176.61354 | 18858 ft | 227 kts | 336° |
| 2026-04-12 18:07 | 65.71413 | 176.59630 | 18985 ft | 227 kts | 336° |
| 2026-04-12 18:08 | 65.72813 | 176.57928 | 19110 ft | 227 kts | 336° |
| 2026-04-12 18:08 | 65.74247 | 176.56189 | 19239 ft | 228 kts | 336° |
| 2026-04-12 18:08 | 65.75655 | 176.54486 | 19365 ft | 228 kts | 336° |
| 2026-04-12 18:08 | 65.77080 | 176.52766 | 19492 ft | 229 kts | 336° |
| 2026-04-12 18:09 | 65.78490 | 176.51071 | 19618 ft | 229 kts | 336° |
| 2026-04-12 18:09 | 65.79923 | 176.49355 | 19746 ft | 229 kts | 336° |
| 2026-04-12 18:09 | 65.81365 | 176.47633 | 19866 ft | 230 kts | 337° |
| 2026-04-12 18:09 | 65.82794 | 176.45935 | 19962 ft | 232 kts | 337° |
| 2026-04-12 18:10 | 65.84254 | 176.44208 | 20069 ft | 233 kts | 337° |
| 2026-04-12 18:10 | 65.85721 | 176.42477 | 20136 ft | 236 kts | 337° |
| 2026-04-12 18:10 | 65.87215 | 176.40723 | 20177 ft | 240 kts | 337° |
| 2026-04-12 18:10 | 65.88726 | 176.38956 | 20240 ft | 243 kts | 337° |
| 2026-04-12 18:11 | 65.90254 | 176.37174 | 20308 ft | 245 kts | 337° |
| 2026-04-12 18:11 | 65.91784 | 176.35396 | 20374 ft | 247 kts | 337° |
| 2026-04-12 18:11 | 65.93359 | 176.33566 | 20330 ft | 254 kts | 336° |
| 2026-04-12 18:11 | 65.94965 | 176.31676 | 20330 ft | 257 kts | 336° |
| 2026-04-12 18:12 | 65.96561 | 176.29762 | 20322 ft | 257 kts | 335° |
| 2026-04-12 18:12 | 65.98164 | 176.27808 | 20317 ft | 257 kts | 335° |
| 2026-04-12 18:12 | 65.99747 | 176.25842 | 20327 ft | 256 kts | 335° |
| 2026-04-12 18:12 | 66.01319 | 176.23859 | 20325 ft | 256 kts | 335° |
| 2026-04-12 18:13 | 66.02900 | 176.21845 | 20321 ft | 256 kts | 335° |
| 2026-04-12 18:13 | 66.04477 | 176.19829 | 20328 ft | 255 kts | 335° |
| 2026-04-12 18:13 | 66.06049 | 176.17822 | 20322 ft | 255 kts | 335° |
| 2026-04-12 18:13 | 66.07607 | 176.15828 | 20326 ft | 255 kts | 335° |
| 2026-04-12 18:14 | 66.09197 | 176.13794 | 20328 ft | 254 kts | 335° |
| 2026-04-12 18:14 | 66.10748 | 176.11807 | 20302 ft | 256 kts | 335° |
| 2026-04-12 18:14 | 66.12338 | 176.09792 | 20297 ft | 255 kts | 335° |
| 2026-04-12 18:14 | 66.13906 | 176.07814 | 20329 ft | 254 kts | 335° |
| 2026-04-12 18:15 | 66.15487 | 176.05827 | 20325 ft | 255 kts | 335° |
| 2026-04-12 18:15 | 66.17073 | 176.03841 | 20329 ft | 256 kts | 335° |
| 2026-04-12 18:15 | 66.18655 | 176.01866 | 20328 ft | 256 kts | 335° |
| 2026-04-12 18:15 | 66.20227 | 175.99910 | 20323 ft | 256 kts | 335° |
| 2026-04-12 18:16 | 66.21824 | 175.97929 | 20331 ft | 255 kts | 335° |
| 2026-04-12 18:16 | 66.23404 | 175.95978 | 20323 ft | 255 kts | 335° |
| 2026-04-12 18:16 | 66.24983 | 175.94032 | 20327 ft | 254 kts | 336° |
| 2026-04-12 18:16 | 66.26578 | 175.92075 | 20328 ft | 254 kts | 336° |
| 2026-04-12 18:17 | 66.28152 | 175.90152 | 20322 ft | 254 kts | 336° |
| 2026-04-12 18:17 | 66.29734 | 175.88225 | 20330 ft | 253 kts | 336° |
| 2026-04-12 18:17 | 66.31313 | 175.86308 | 20324 ft | 254 kts | 336° |
| 2026-04-12 18:17 | 66.32892 | 175.84401 | 20328 ft | 253 kts | 336° |
| 2026-04-12 18:18 | 66.34472 | 175.82472 | 20333 ft | 253 kts | 335° |
| 2026-04-12 18:18 | 66.36031 | 175.80412 | 20330 ft | 253 kts | 335° |
| 2026-04-12 18:18 | 66.37581 | 175.78398 | 20323 ft | 253 kts | 335° |
| 2026-04-12 18:18 | 66.39155 | 175.76376 | 20322 ft | 253 kts | 335° |
| 2026-04-12 18:19 | 66.40726 | 175.74367 | 20329 ft | 253 kts | 335° |
| 2026-04-12 18:19 | 66.42269 | 175.72403 | 20321 ft | 253 kts | 335° |
| 2026-04-12 18:19 | 66.43845 | 175.70406 | 20328 ft | 253 kts | 335° |
| 2026-04-12 18:19 | 66.45409 | 175.68433 | 20327 ft | 253 kts | 336° |
| 2026-04-12 18:20 | 66.46984 | 175.66455 | 20325 ft | 253 kts | 336° |
| 2026-04-12 18:20 | 66.48547 | 175.64504 | 20332 ft | 252 kts | 336° |
| 2026-04-12 18:20 | 66.50127 | 175.62540 | 20322 ft | 253 kts | 336° |
| 2026-04-12 18:20 | 66.51700 | 175.60596 | 20327 ft | 253 kts | 336° |
| 2026-04-12 18:21 | 66.52325 | 175.59825 | 20322 ft | 253 kts | 336° |
| 2026-04-12 18:21 | 66.53301 | 175.58627 | 20329 ft | 252 kts | 336° |
| 2026-04-12 18:21 | 66.54871 | 175.56697 | 20325 ft | 253 kts | 336° |
| 2026-04-12 18:21 | 66.56419 | 175.54651 | 20330 ft | 253 kts | 335° |
| 2026-04-12 18:22 | 66.57989 | 175.52602 | 20323 ft | 253 kts | 335° |
| 2026-04-12 18:22 | 66.59545 | 175.50594 | 20324 ft | 253 kts | 335° |
| 2026-04-12 18:22 | 66.61110 | 175.48581 | 20328 ft | 253 kts | 335° |
| 2026-04-12 18:22 | 66.62684 | 175.46564 | 20321 ft | 253 kts | 335° |
| 2026-04-12 18:23 | 66.64236 | 175.44571 | 20330 ft | 253 kts | 335° |
| 2026-04-12 18:23 | 66.65775 | 175.42392 | 20320 ft | 254 kts | 333° |
| 2026-04-12 18:23 | 66.67318 | 175.40183 | 20318 ft | 253 kts | 333° |
| 2026-04-12 18:23 | 66.68841 | 175.38036 | 20323 ft | 253 kts | 333° |
| 2026-04-12 18:24 | 66.70387 | 175.35870 | 20329 ft | 253 kts | 334° |
| 2026-04-12 18:24 | 66.71914 | 175.33743 | 20319 ft | 253 kts | 333° |
| 2026-04-12 18:24 | 66.73470 | 175.31561 | 20327 ft | 253 kts | 333° |
| 2026-04-12 18:24 | 66.74987 | 175.29411 | 20323 ft | 253 kts | 332° |
| 2026-04-12 18:25 | 66.76534 | 175.27197 | 20325 ft | 253 kts | 332° |
| 2026-04-12 18:25 | 66.78063 | 175.24994 | 20330 ft | 253 kts | 332° |
| 2026-04-12 18:25 | 66.79585 | 175.22795 | 20322 ft | 253 kts | 332° |
| 2026-04-12 18:25 | 66.81101 | 175.20605 | 20331 ft | 253 kts | 332° |
| 2026-04-12 18:26 | 66.82639 | 175.18382 | 20325 ft | 253 kts | 332° |
| 2026-04-12 18:26 | 66.84162 | 175.16171 | 20324 ft | 254 kts | 332° |
| 2026-04-12 18:26 | 66.85690 | 175.13943 | 20331 ft | 253 kts | 332° |
| 2026-04-12 18:26 | 66.87209 | 175.11714 | 20324 ft | 254 kts | 332° |
| 2026-04-12 18:27 | 66.88731 | 175.09468 | 20330 ft | 253 kts | 332° |
| 2026-04-12 18:27 | 66.90250 | 175.07211 | 20326 ft | 254 kts | 332° |
| 2026-04-12 18:27 | 66.91776 | 175.04932 | 20324 ft | 254 kts | 332° |
| 2026-04-12 18:27 | 66.93284 | 175.02664 | 20332 ft | 253 kts | 332° |
| 2026-04-12 18:28 | 66.94799 | 175.00374 | 20325 ft | 254 kts | 332° |
| 2026-04-12 18:28 | 66.96315 | 174.98067 | 20326 ft | 254 kts | 332° |
| 2026-04-12 18:28 | 66.97816 | 174.95769 | 20327 ft | 253 kts | 332° |
| 2026-04-12 18:28 | 66.99338 | 174.93449 | 20325 ft | 253 kts | 334° |
| 2026-04-12 18:29 | 67.00882 | 174.91353 | 20330 ft | 252 kts | 336° |
| 2026-04-12 18:29 | 67.02443 | 174.89273 | 20321 ft | 252 kts | 336° |
| 2026-04-12 18:29 | 67.03992 | 174.87196 | 20325 ft | 252 kts | 336° |
| 2026-04-12 18:29 | 67.05537 | 174.85115 | 20330 ft | 252 kts | 335° |
| 2026-04-12 18:30 | 67.07096 | 174.83003 | 20323 ft | 252 kts | 335° |
| 2026-04-12 18:30 | 67.08635 | 174.80908 | 20331 ft | 252 kts | 335° |
| 2026-04-12 18:30 | 67.10185 | 174.78789 | 20325 ft | 252 kts | 335° |
| 2026-04-12 18:30 | 67.11746 | 174.76668 | 20283 ft | 254 kts | 336° |
| 2026-04-12 18:31 | 67.13294 | 174.74594 | 20338 ft | 251 kts | 336° |
| 2026-04-12 18:31 | 67.14851 | 174.72540 | 20341 ft | 251 kts | 336° |
| 2026-04-12 18:31 | 67.16398 | 174.70529 | 20332 ft | 251 kts | 337° |
| 2026-04-12 18:31 | 67.17971 | 174.68515 | 20322 ft | 252 kts | 337° |
| 2026-04-12 18:32 | 67.19537 | 174.66540 | 20325 ft | 251 kts | 338° |
| 2026-04-12 18:32 | 67.21101 | 174.64601 | 20331 ft | 251 kts | 338° |
| 2026-04-12 18:32 | 67.22684 | 174.62671 | 20324 ft | 251 kts | 339° |
| 2026-04-12 18:32 | 67.24277 | 174.60762 | 20330 ft | 251 kts | 339° |
| 2026-04-12 18:33 | 67.25853 | 174.58905 | 20326 ft | 251 kts | 339° |
| 2026-04-12 18:33 | 67.27458 | 174.57045 | 20323 ft | 251 kts | 340° |
| 2026-04-12 18:33 | 67.29029 | 174.55180 | 20341 ft | 251 kts | 337° |
| 2026-04-12 18:33 | 67.30583 | 174.53017 | 20332 ft | 253 kts | 335° |
| 2026-04-12 18:34 | 67.32130 | 174.50853 | 20313 ft | 253 kts | 336° |
| 2026-04-12 18:34 | 67.33672 | 174.48737 | 20325 ft | 253 kts | 336° |
| 2026-04-12 18:34 | 67.35230 | 174.46622 | 20330 ft | 252 kts | 336° |
| 2026-04-12 18:34 | 67.36769 | 174.44424 | 20332 ft | 253 kts | 333° |
| 2026-04-12 18:35 | 67.38260 | 174.42033 | 20316 ft | 254 kts | 333° |
| 2026-04-12 18:35 | 67.39785 | 174.39629 | 20328 ft | 254 kts | 333° |
| 2026-04-12 18:35 | 67.41299 | 174.37267 | 20326 ft | 254 kts | 333° |
| 2026-04-12 18:35 | 67.42815 | 174.34920 | 20325 ft | 254 kts | 332° |
| 2026-04-12 18:36 | 67.43823 | 174.33366 | 20315 ft | 254 kts | 332° |
| 2026-04-12 18:37 | 67.50359 | 174.23126 | 20332 ft | 254 kts | 332° |
| 2026-04-12 18:37 | 67.51186 | 174.21811 | 20326 ft | 254 kts | 332° |
| 2026-04-12 18:37 | 67.52697 | 174.19392 | 20332 ft | 254 kts | 332° |
| 2026-04-12 18:37 | 67.54199 | 174.16975 | 20323 ft | 254 kts | 332° |
| 2026-04-12 18:38 | 67.55706 | 174.14549 | 20326 ft | 254 kts | 332° |
| 2026-04-12 18:38 | 67.57192 | 174.12152 | 20329 ft | 254 kts | 332° |
| 2026-04-12 18:38 | 67.58703 | 174.09714 | 20323 ft | 254 kts | 332° |
| 2026-04-12 18:38 | 67.60193 | 174.07306 | 20332 ft | 254 kts | 332° |
| 2026-04-12 18:39 | 67.61709 | 174.04855 | 20324 ft | 254 kts | 332° |
| 2026-04-12 18:39 | 67.63190 | 174.02455 | 20325 ft | 254 kts | 332° |
| 2026-04-12 18:39 | 67.64695 | 174.00014 | 20328 ft | 254 kts | 332° |
| 2026-04-12 18:39 | 67.66207 | 173.97556 | 20321 ft | 254 kts | 332° |
| 2026-04-12 18:40 | 67.67709 | 173.95110 | 20330 ft | 254 kts | 332° |
| 2026-04-12 18:40 | 67.69217 | 173.92690 | 20329 ft | 253 kts | 334° |
| 2026-04-12 18:40 | 67.70755 | 173.90565 | 20339 ft | 252 kts | 337° |
| 2026-04-12 18:40 | 67.72334 | 173.88461 | 20322 ft | 253 kts | 336° |
| 2026-04-12 18:41 | 67.73888 | 173.86336 | 20326 ft | 253 kts | 337° |
| 2026-04-12 18:41 | 67.75443 | 173.84256 | 20329 ft | 253 kts | 337° |
| 2026-04-12 18:41 | 67.77018 | 173.82170 | 20321 ft | 253 kts | 337° |
| 2026-04-12 18:41 | 67.78581 | 173.80080 | 20331 ft | 253 kts | 336° |
| 2026-04-12 18:42 | 67.80138 | 173.77889 | 20316 ft | 254 kts | 336° |
| 2026-04-12 18:42 | 67.81707 | 173.75709 | 20326 ft | 253 kts | 336° |
| 2026-04-12 18:42 | 67.83270 | 173.73550 | 20323 ft | 253 kts | 336° |
| 2026-04-12 18:43 | 67.87935 | 173.67079 | 20323 ft | 254 kts | 336° |
| 2026-04-12 18:43 | 67.89492 | 173.64909 | 20331 ft | 253 kts | 336° |
| 2026-04-12 18:43 | 67.91048 | 173.62740 | 20324 ft | 254 kts | 336° |
| 2026-04-12 18:44 | 67.92612 | 173.60558 | 20328 ft | 253 kts | 336° |
| 2026-04-12 18:44 | 67.94161 | 173.58391 | 20329 ft | 253 kts | 336° |
| 2026-04-12 18:44 | 67.95728 | 173.56200 | 20322 ft | 254 kts | 336° |
| 2026-04-12 18:44 | 67.97289 | 173.54011 | 20330 ft | 253 kts | 336° |
| 2026-04-12 18:45 | 67.98839 | 173.51836 | 20324 ft | 254 kts | 336° |
| 2026-04-12 18:45 | 68.00394 | 173.49651 | 20326 ft | 254 kts | 336° |
| 2026-04-12 18:45 | 68.01935 | 173.47313 | 20332 ft | 254 kts | 334° |
| 2026-04-12 18:45 | 68.03466 | 173.44968 | 20320 ft | 254 kts | 334° |
| 2026-04-12 18:46 | 68.05003 | 173.42647 | 20326 ft | 254 kts | 334° |
| 2026-04-12 18:46 | 68.06536 | 173.40334 | 20330 ft | 254 kts | 334° |
| 2026-04-12 18:46 | 68.08082 | 173.37994 | 20322 ft | 254 kts | 334° |
| 2026-04-12 18:46 | 68.09601 | 173.35690 | 20329 ft | 254 kts | 334° |
| 2026-04-12 18:47 | 68.11150 | 173.33339 | 20267 ft | 257 kts | 333° |
| 2026-04-12 18:47 | 68.12706 | 173.30980 | 20308 ft | 255 kts | 333° |
| 2026-04-12 18:47 | 68.14239 | 173.28659 | 20318 ft | 254 kts | 334° |
| 2026-04-12 18:47 | 68.15789 | 173.26317 | 20330 ft | 254 kts | 334° |
| 2026-04-12 18:48 | 68.17325 | 173.23999 | 20324 ft | 254 kts | 334° |
| 2026-04-12 18:48 | 68.18857 | 173.21693 | 20325 ft | 254 kts | 334° |
| 2026-04-12 18:48 | 68.20403 | 173.19369 | 20330 ft | 254 kts | 334° |
| 2026-04-12 18:48 | 68.21933 | 173.17075 | 20322 ft | 254 kts | 334° |
| 2026-04-12 18:49 | 68.23489 | 173.14748 | 20329 ft | 254 kts | 334° |
| 2026-04-12 18:49 | 68.25028 | 173.12447 | 20325 ft | 254 kts | 334° |
| 2026-04-12 18:49 | 68.26579 | 173.10132 | 20325 ft | 254 kts | 334° |
| 2026-04-12 18:49 | 68.28117 | 173.07844 | 20332 ft | 254 kts | 334° |
| 2026-04-12 18:50 | 68.29665 | 173.05545 | 20322 ft | 254 kts | 334° |
| 2026-04-12 18:50 | 68.31216 | 173.03245 | 20327 ft | 254 kts | 334° |
| 2026-04-12 18:50 | 68.32767 | 173.00951 | 20325 ft | 254 kts | 334° |
| 2026-04-12 18:50 | 68.34309 | 172.98674 | 20322 ft | 255 kts | 334° |
| 2026-04-12 18:51 | 68.35864 | 172.96384 | 20330 ft | 255 kts | 334° |
| 2026-04-12 18:51 | 68.37429 | 172.94052 | 20326 ft | 255 kts | 332° |
| 2026-04-12 18:51 | 68.38944 | 172.91606 | 20330 ft | 256 kts | 332° |
| 2026-04-12 18:51 | 68.40479 | 172.89180 | 20324 ft | 256 kts | 332° |
| 2026-04-12 18:52 | 68.42014 | 172.86798 | 20323 ft | 256 kts | 332° |
| 2026-04-12 18:52 | 68.43573 | 172.84396 | 20332 ft | 256 kts | 332° |
| 2026-04-12 18:52 | 68.45120 | 172.82028 | 20325 ft | 257 kts | 332° |
| 2026-04-12 18:52 | 68.46676 | 172.79662 | 20326 ft | 257 kts | 332° |
| 2026-04-12 18:53 | 68.48248 | 172.77281 | 20329 ft | 257 kts | 332° |
| 2026-04-12 18:53 | 68.49778 | 172.74832 | 20327 ft | 257 kts | 331° |
| 2026-04-12 18:53 | 68.51329 | 172.72365 | 20320 ft | 258 kts | 331° |
| 2026-04-12 18:53 | 68.52877 | 172.69930 | 20323 ft | 258 kts | 331° |
| 2026-04-12 18:54 | 68.54424 | 172.67505 | 20332 ft | 257 kts | 332° |
| 2026-04-12 18:54 | 68.55982 | 172.65070 | 20323 ft | 258 kts | 332° |
| 2026-04-12 18:54 | 68.57525 | 172.62668 | 20326 ft | 258 kts | 332° |
| 2026-04-12 18:54 | 68.59082 | 172.60252 | 20328 ft | 258 kts | 332° |
| 2026-04-12 18:55 | 68.60643 | 172.57838 | 20323 ft | 258 kts | 332° |
| 2026-04-12 18:55 | 68.62209 | 172.55428 | 20331 ft | 258 kts | 332° |
| 2026-04-12 18:55 | 68.63779 | 172.53018 | 20325 ft | 258 kts | 332° |
| 2026-04-12 18:55 | 68.65342 | 172.50629 | 20336 ft | 258 kts | 332° |
| 2026-04-12 18:56 | 68.66892 | 172.48267 | 20352 ft | 257 kts | 333° |
| 2026-04-12 18:56 | 68.68467 | 172.45845 | 20360 ft | 257 kts | 331° |
| 2026-04-12 18:56 | 68.69977 | 172.43306 | 20366 ft | 258 kts | 330° |
| 2026-04-12 18:56 | 68.71520 | 172.40738 | 20353 ft | 258 kts | 331° |
| 2026-04-12 18:57 | 68.73064 | 172.38199 | 20356 ft | 258 kts | 331° |
| 2026-04-12 18:57 | 68.74598 | 172.35683 | 20361 ft | 258 kts | 331° |
| 2026-04-12 18:57 | 68.76146 | 172.33148 | 20342 ft | 259 kts | 330° |
| 2026-04-12 18:57 | 68.77695 | 172.30589 | 20352 ft | 259 kts | 329° |
| 2026-04-12 18:58 | 68.79227 | 172.28033 | 20353 ft | 259 kts | 329° |
| 2026-04-12 18:58 | 68.80759 | 172.25456 | 20357 ft | 259 kts | 329° |
| 2026-04-12 18:58 | 68.82301 | 172.22859 | 20357 ft | 259 kts | 329° |
| 2026-04-12 18:58 | 68.83816 | 172.20302 | 20353 ft | 259 kts | 329° |
| 2026-04-12 18:59 | 68.85355 | 172.17705 | 20361 ft | 259 kts | 329° |
| 2026-04-12 18:59 | 68.86884 | 172.15118 | 20353 ft | 259 kts | 329° |
| 2026-04-12 18:59 | 68.88416 | 172.12526 | 20355 ft | 259 kts | 329° |
| 2026-04-12 18:59 | 68.89965 | 172.09898 | 20360 ft | 259 kts | 329° |
| 2026-04-12 19:00 | 68.91492 | 172.07307 | 20353 ft | 259 kts | 329° |
| 2026-04-12 19:00 | 68.93027 | 172.04695 | 20360 ft | 259 kts | 329° |
| 2026-04-12 19:00 | 68.94579 | 172.02052 | 20357 ft | 259 kts | 329° |
| 2026-04-12 19:00 | 68.96092 | 171.99471 | 20354 ft | 260 kts | 329° |
| 2026-04-12 19:01 | 68.97641 | 171.96825 | 20358 ft | 259 kts | 329° |
| 2026-04-12 19:01 | 68.99102 | 171.94325 | 20351 ft | 260 kts | 329° |
| 2026-04-12 19:01 | 69.00029 | 171.92735 | 20359 ft | 259 kts | 329° |
| 2026-04-12 19:01 | 69.01591 | 171.90164 | 20361 ft | 259 kts | 333° |
| 2026-04-12 19:02 | 69.03179 | 171.87793 | 20342 ft | 260 kts | 333° |
| 2026-04-12 19:02 | 69.04753 | 171.85434 | 20353 ft | 259 kts | 333° |
| 2026-04-12 19:02 | 69.06333 | 171.83040 | 20354 ft | 259 kts | 333° |
| 2026-04-12 19:02 | 69.07925 | 171.80609 | 20356 ft | 260 kts | 333° |
| 2026-04-12 19:03 | 69.09493 | 171.78207 | 20359 ft | 259 kts | 333° |
| 2026-04-12 19:03 | 69.11081 | 171.75780 | 20310 ft | 262 kts | 333° |
| 2026-04-12 19:03 | 69.12685 | 171.73354 | 20335 ft | 260 kts | 333° |
| 2026-04-12 19:03 | 69.14278 | 171.70969 | 20353 ft | 259 kts | 333° |
| 2026-04-12 19:04 | 69.15872 | 171.68605 | 20359 ft | 259 kts | 334° |
| 2026-04-12 19:04 | 69.17416 | 171.66339 | 20244 ft | 246 kts | 334° |
| 2026-04-12 19:04 | 69.18902 | 171.64185 | 20002 ft | 239 kts | 334° |
| 2026-04-12 19:04 | 69.20371 | 171.62085 | 19704 ft | 235 kts | 335° |
| 2026-04-12 19:05 | 69.21814 | 171.60054 | 19387 ft | 233 kts | 335° |
| 2026-04-12 19:05 | 69.23201 | 171.57764 | 19083 ft | 230 kts | 326° |
| 2026-04-12 19:05 | 69.24483 | 171.55156 | 18768 ft | 228 kts | 327° |
| 2026-04-12 19:05 | 69.25771 | 171.52594 | 18437 ft | 226 kts | 327° |
| 2026-04-12 19:06 | 69.27055 | 171.50079 | 18110 ft | 224 kts | 327° |
| 2026-04-12 19:06 | 69.27957 | 171.48338 | 17881 ft | 223 kts | 327° |
| 2026-04-12 19:06 | 69.29235 | 171.45905 | 17557 ft | 222 kts | 328° |
| 2026-04-12 19:06 | 69.30512 | 171.43510 | 17235 ft | 220 kts | 328° |
| 2026-04-12 19:07 | 69.31788 | 171.41157 | 16915 ft | 218 kts | 329° |
| 2026-04-12 19:07 | 69.33064 | 171.38843 | 16558 ft | 219 kts | 329° |
| 2026-04-12 19:07 | 69.34349 | 171.36552 | 16193 ft | 220 kts | 330° |
| 2026-04-12 19:07 | 69.35632 | 171.34302 | 15844 ft | 220 kts | 329° |
| 2026-04-12 19:08 | 69.36929 | 171.32044 | 15488 ft | 220 kts | 329° |
| 2026-04-12 19:08 | 69.38242 | 171.29759 | 15139 ft | 220 kts | 329° |
| 2026-04-12 19:08 | 69.38914 | 171.28590 | 14964 ft | 219 kts | 329° |
| 2026-04-12 19:08 | 69.40217 | 171.26325 | 14630 ft | 218 kts | 329° |
| 2026-04-12 19:09 | 69.41502 | 171.24089 | 14305 ft | 217 kts | 329° |
| 2026-04-12 19:09 | 69.42409 | 171.22508 | 14077 ft | 217 kts | 329° |
| 2026-04-12 19:09 | 69.43692 | 171.20276 | 13758 ft | 216 kts | 329° |
| 2026-04-12 19:09 | 69.44948 | 171.18089 | 13449 ft | 214 kts | 329° |
| 2026-04-12 19:10 | 69.46228 | 171.15858 | 13135 ft | 213 kts | 329° |
| 2026-04-12 19:10 | 69.47488 | 171.13663 | 12828 ft | 212 kts | 329° |
| 2026-04-12 19:10 | 69.48730 | 171.11497 | 12528 ft | 211 kts | 329° |
| 2026-04-12 19:10 | 69.49969 | 171.09337 | 12251 ft | 209 kts | 329° |
| 2026-04-12 19:11 | 69.51210 | 171.07170 | 11968 ft | 207 kts | 329° |
| 2026-04-12 19:11 | 69.52425 | 171.05049 | 11682 ft | 206 kts | 329° |
| 2026-04-12 19:11 | 69.53647 | 171.02919 | 11391 ft | 206 kts | 329° |
| 2026-04-12 19:11 | 69.54864 | 171.00798 | 11111 ft | 205 kts | 329° |
| 2026-04-12 19:12 | 69.56071 | 170.98698 | 10835 ft | 204 kts | 329° |
| 2026-04-12 19:12 | 69.57278 | 170.96597 | 10554 ft | 203 kts | 329° |
| 2026-04-12 19:12 | 69.58477 | 170.94513 | 10273 ft | 203 kts | 329° |
| 2026-04-12 19:12 | 69.59686 | 170.92415 | 9991 ft | 202 kts | 327° |
| 2026-04-12 19:13 | 69.60892 | 170.90334 | 9736 ft | 200 kts | 326° |
| 2026-04-12 19:13 | 69.62060 | 170.88318 | 9489 ft | 198 kts | 326° |
| 2026-04-12 19:13 | 69.63234 | 170.86299 | 9240 ft | 195 kts | 326° |
| 2026-04-12 19:13 | 69.64401 | 170.84296 | 8986 ft | 193 kts | 326° |
| 2026-04-12 19:14 | 69.65547 | 170.82329 | 8735 ft | 192 kts | 326° |
| 2026-04-12 19:14 | 69.66730 | 170.80659 | 8497 ft | 191 kts | 335° |
| 2026-04-12 19:14 | 69.67963 | 170.79297 | 8246 ft | 189 kts | 336° |
| 2026-04-12 19:14 | 69.69160 | 170.77797 | 8003 ft | 186 kts | 330° |
| 2026-04-12 19:15 | 69.70291 | 170.76083 | 7758 ft | 185 kts | 329° |
| 2026-04-12 19:15 | 69.71432 | 170.74379 | 7503 ft | 184 kts | 329° |
| 2026-04-12 19:15 | 69.72568 | 170.72694 | 7253 ft | 183 kts | 329° |
| 2026-04-12 19:15 | 69.73685 | 170.71040 | 7001 ft | 182 kts | 329° |
| 2026-04-12 19:16 | 69.74808 | 170.69373 | 6682 ft | 185 kts | 329° |
| 2026-04-12 19:16 | 69.75974 | 170.67631 | 6313 ft | 190 kts | 330° |
| 2026-04-12 19:16 | 69.77136 | 170.65883 | 5977 ft | 192 kts | 330° |
| 2026-04-12 19:16 | 69.78329 | 170.64075 | 5654 ft | 193 kts | 330° |
| 2026-04-12 19:17 | 69.79507 | 170.62280 | 5347 ft | 193 kts | 330° |
| 2026-04-12 19:17 | 69.80701 | 170.60448 | 5050 ft | 192 kts | 330° |
| 2026-04-12 19:17 | 69.81760 | 170.58263 | 4841 ft | 184 kts | 312° |
| 2026-04-12 19:17 | 69.82400 | 170.55267 | 4787 ft | 169 kts | 288° |
| 2026-04-12 19:18 | 69.82499 | 170.52040 | 4775 ft | 154 kts | 261° |
| 2026-04-12 19:18 | 69.82065 | 170.49312 | 4767 ft | 154 kts | 232° |
| 2026-04-12 19:18 | 69.81189 | 170.47534 | 4821 ft | 156 kts | 203° |
| 2026-04-12 19:18 | 69.80106 | 170.47231 | 4854 ft | 160 kts | 173° |
| 2026-04-12 19:19 | 69.79049 | 170.48386 | 4893 ft | 162 kts | 157° |
| 2026-04-12 19:19 | 69.78042 | 170.49809 | 4923 ft | 163 kts | 159° |
| 2026-04-12 19:19 | 69.76971 | 170.50955 | 4894 ft | 166 kts | 167° |
| 2026-04-12 19:19 | 69.75864 | 170.51895 | 4882 ft | 169 kts | 167° |
| 2026-04-12 19:20 | 69.75102 | 170.52539 | 4872 ft | 170 kts | 167° |
| 2026-04-12 19:20 | 69.73591 | 170.53821 | 4866 ft | 171 kts | 167° |
| 2026-04-12 19:20 | 69.72535 | 170.54723 | 4866 ft | 171 kts | 166° |
| 2026-04-12 19:20 | 69.71915 | 170.55252 | 4862 ft | 172 kts | 166° |
| 2026-04-12 19:21 | 69.70762 | 170.56238 | 4864 ft | 171 kts | 166° |
| 2026-04-12 19:21 | 69.69634 | 170.57208 | 4862 ft | 170 kts | 166° |
| 2026-04-12 19:21 | 69.68499 | 170.58188 | 4863 ft | 169 kts | 166° |
| 2026-04-12 19:21 | 69.67371 | 170.59163 | 4861 ft | 168 kts | 166° |
| 2026-04-12 19:22 | 69.66254 | 170.60129 | 4864 ft | 167 kts | 166° |
| 2026-04-12 19:22 | 69.65144 | 170.61090 | 4866 ft | 166 kts | 166° |
| 2026-04-12 19:22 | 69.64061 | 170.62030 | 4926 ft | 161 kts | 166° |
| 2026-04-12 19:22 | 69.62994 | 170.62959 | 4892 ft | 161 kts | 166° |
| 2026-04-12 19:23 | 69.61922 | 170.63892 | 4877 ft | 161 kts | 166° |
| 2026-04-12 19:23 | 69.60846 | 170.64824 | 4863 ft | 160 kts | 166° |
| 2026-04-12 19:23 | 69.59782 | 170.65747 | 4864 ft | 158 kts | 166° |
| 2026-04-12 19:23 | 69.58744 | 170.66647 | 4859 ft | 157 kts | 166° |
| 2026-04-12 19:24 | 69.57705 | 170.67549 | 4859 ft | 156 kts | 166° |
| 2026-04-12 19:24 | 69.56661 | 170.68454 | 4862 ft | 154 kts | 166° |
| 2026-04-12 19:24 | 69.55644 | 170.69338 | 4862 ft | 152 kts | 166° |
| 2026-04-12 19:24 | 69.54630 | 170.70219 | 4861 ft | 151 kts | 166° |
| 2026-04-12 19:25 | 69.53629 | 170.71089 | 4861 ft | 150 kts | 166° |
| 2026-04-12 19:25 | 69.52634 | 170.71954 | 4862 ft | 149 kts | 166° |
| 2026-04-12 19:25 | 69.51646 | 170.72813 | 4862 ft | 147 kts | 166° |
| 2026-04-12 19:25 | 69.50671 | 170.73663 | 4863 ft | 146 kts | 166° |
| 2026-04-12 19:26 | 69.49714 | 170.74493 | 4863 ft | 145 kts | 166° |
| 2026-04-12 19:26 | 69.48781 | 170.75645 | 4762 ft | 148 kts | 141° |
| 2026-04-12 19:26 | 69.48272 | 170.78091 | 4498 ft | 147 kts | 93° |
| 2026-04-12 19:26 | 69.48581 | 170.80711 | 4194 ft | 142 kts | 38° |
| 2026-04-12 19:27 | 69.49461 | 170.81502 | 3905 ft | 134 kts | 345° |
| 2026-04-12 19:27 | 69.50336 | 170.80753 | 3724 ft | 128 kts | 340° |
| 2026-04-12 19:27 | 69.51144 | 170.80026 | 3563 ft | 120 kts | 340° |
| 2026-04-12 19:27 | 69.51929 | 170.79336 | 3283 ft | 117 kts | 341° |
| 2026-04-12 19:28 | 69.52705 | 170.78673 | 2988 ft | 116 kts | 341° |
| 2026-04-12 19:28 | 69.53474 | 170.78027 | 2690 ft | 115 kts | 342° |
| 2026-04-12 19:28 | 69.54239 | 170.77397 | 2401 ft | 117 kts | 342° |
| 2026-04-12 19:28 | 69.55040 | 170.76729 | 2224 ft | 124 kts | 342° |
| 2026-04-12 19:29 | 69.55845 | 170.76062 | 2054 ft | 117 kts | 342° |
| 2026-04-12 19:29 | 69.56609 | 170.75446 | 1817 ft | 112 kts | 343° |
| 2026-04-12 19:29 | 69.57388 | 170.74821 | 1713 ft | 116 kts | 343° |
| 2026-04-12 19:29 | 69.58137 | 170.74085 | 1787 ft | 113 kts | 335° |
| 2026-04-12 19:30 | 69.58837 | 170.72992 | 1813 ft | 116 kts | 333° |
| 2026-04-12 19:30 | 69.59609 | 170.72388 | 1840 ft | 118 kts | 352° |
| 2026-04-12 19:30 | 69.60429 | 170.71959 | 1868 ft | 119 kts | 343° |
| 2026-04-12 19:30 | 69.61224 | 170.71201 | 1853 ft | 125 kts | 342° |
| 2026-04-12 19:31 | 69.62085 | 170.70656 | 1852 ft | 128 kts | 347° |
| 2026-04-12 19:31 | 69.62972 | 170.70171 | 1837 ft | 128 kts | 348° |
| 2026-04-12 19:31 | 69.63834 | 170.69702 | 1828 ft | 127 kts | 348° |
| 2026-04-12 19:31 | 69.64709 | 170.69229 | 1830 ft | 125 kts | 347° |
| 2026-04-12 19:32 | 69.65526 | 170.68538 | 1839 ft | 118 kts | 338° |
| 2026-04-12 19:32 | 69.66159 | 170.67549 | 1952 ft | 98 kts | 325° |
| 2026-04-12 19:32 | 69.66711 | 170.66334 | 1883 ft | 100 kts | 331° |
| 2026-04-12 19:32 | 69.67376 | 170.65826 | 1842 ft | 101 kts | 357° |
| 2026-04-12 19:33 | 69.68075 | 170.66248 | 1770 ft | 105 kts | 15° |
| 2026-04-12 19:33 | 69.68793 | 170.66673 | 1695 ft | 107 kts | 3° |
| 2026-04-12 19:33 | 69.69531 | 170.66458 | 1621 ft | 107 kts | 344° |
| 2026-04-12 19:33 | 69.70234 | 170.65685 | 1551 ft | 109 kts | 336° |
| 2026-04-12 19:34 | 69.70959 | 170.64749 | 1397 ft | 116 kts | 335° |
| 2026-04-12 19:34 | 69.71699 | 170.63867 | 1281 ft | 117 kts | 340° |
| 2026-04-12 19:34 | 69.72495 | 170.63235 | 1042 ft | 122 kts | 346° |
| 2026-04-12 19:34 | 69.73325 | 170.62852 | 842 ft | 122 kts | 350° |
| 2026-04-12 19:35 | 69.74152 | 170.62341 | 652 ft | 121 kts | 347° |
| 2026-04-12 19:35 | 69.74973 | 170.61862 | 462 ft | 120 kts | 346° |
| 2026-04-12 19:35 | 69.75763 | 170.61320 | 326 ft | 116 kts | 345° |
| 2026-04-12 19:35 | 69.76542 | 170.60863 | 193 ft | 113 kts | 349° |
| 2026-04-12 19:36 | 69.77293 | 170.60355 | 60 ft | 108 kts | 346° |
| 2026-04-12 19:36 | 69.77998 | 170.59872 | 25 ft | 98 kts | 348° |
| 2026-04-12 19:36 | 69.78602 | 170.59486 | 10 ft | 71 kts | 345° |
| 2026-04-12 19:36 | 69.78813 | 170.59343 | 10 ft | 0 kts | 348° |
| 2026-04-12 19:37 | 69.78814 | 170.59343 | 10 ft | 0 kts | 347° |
| 2026-04-12 19:37 | 69.78837 | 170.59326 | 10 ft | 11 kts | 349° |
| 2026-04-12 19:37 | 69.78924 | 170.59270 | 10 ft | 14 kts | 256° |
| 2026-04-12 19:38 | 69.78878 | 170.59288 | 10 ft | 2 kts | 152° |
| 2026-04-12 19:38 | 69.78841 | 170.59326 | 10 ft | 14 kts | 156° |
| 2026-04-12 19:38 | 69.78812 | 170.59474 | 10 ft | 3 kts | 82° |
| 2026-04-12 19:38 | 69.78812 | 170.59486 | 10 ft | 0 kts | 80° |
| 2026-04-12 19:39 | 69.78825 | 170.59634 | 10 ft | 8 kts | 76° |
| 2026-04-12 19:39 | 69.78831 | 170.59705 | 10 ft | 0 kts | 77° |
| 2026-04-12 19:39 | 69.78844 | 170.59880 | 10 ft | 8 kts | 80° |
| 2026-04-12 19:39 | 69.78842 | 170.59953 | 10 ft | 0 kts | 113° |
| 2026-04-12 19:40 | 69.78818 | 170.60053 | 10 ft | 5 kts | 127° |
| 2026-04-12 19:40 | 69.78812 | 170.60077 | 10 ft | 0 kts | 128° |
| 2026-04-12 19:40 | 69.78811 | 170.60080 | 10 ft | 2 kts | 129° |
| 2026-04-12 19:40 | 69.78801 | 170.60113 | 10 ft | 0 kts | 130° |